createdAt,value
2022-11-09T00:01:02.489Z,7.43
2022-11-09T00:03:31.723Z,7.37
2022-11-09T00:06:00.791Z,7.39
2022-11-09T00:08:29.219Z,7.33
2022-11-09T00:11:02.869Z,7.29
2022-11-09T00:13:30.905Z,7.27
2022-11-09T00:16:00.134Z,7.16
2022-11-09T00:18:27.961Z,7.24
2022-11-09T00:20:57.352Z,7.17
2022-11-09T00:23:25.119Z,7.18
2022-11-09T00:25:52.823Z,7.18
2022-11-09T00:28:20.699Z,7.15
2022-11-09T00:30:48.595Z,7.16
2022-11-09T00:33:16.463Z,7.25
2022-11-09T00:35:44.609Z,7.27
2022-11-09T00:38:13.709Z,7.31
2022-11-09T00:40:41.518Z,7.21
2022-11-09T00:43:09.677Z,7.30
2022-11-09T00:45:37.714Z,7.29
2022-11-09T00:48:05.616Z,7.37
2022-11-09T00:50:34.112Z,7.35
2022-11-09T00:53:02.274Z,7.34
2022-11-09T00:55:31.409Z,7.33
2022-11-09T00:57:59.097Z,7.18
2022-11-09T01:00:26.821Z,7.10
2022-11-09T01:02:54.869Z,7.02
2022-11-09T01:05:22.574Z,7.01
2022-11-09T01:07:50.706Z,6.88
2022-11-09T01:10:18.445Z,6.94
2022-11-09T01:12:47.497Z,6.97
2022-11-09T01:15:15.198Z,7.02
2022-11-09T01:17:42.908Z,6.92
2022-11-09T01:20:12.024Z,6.84
2022-11-09T01:22:39.711Z,6.78
2022-11-09T01:25:08.505Z,6.74
2022-11-09T01:27:36.798Z,6.80
2022-11-09T01:30:06.914Z,6.85
2022-11-09T01:32:34.911Z,6.93
2022-11-09T01:35:02.636Z,7.04
2022-11-09T01:37:30.360Z,7.11
2022-11-09T01:39:58.062Z,7.37
2022-11-09T01:42:26.678Z,7.21
2022-11-09T01:45:30.108Z,7.43
2022-11-09T01:48:02.927Z,7.27
2022-11-09T01:50:39.281Z,7.24
2022-11-09T01:53:12.135Z,7.33
2022-11-09T01:55:40.266Z,7.38
2022-11-09T01:58:11.703Z,7.42
2022-11-09T02:00:45.304Z,7.46
2022-11-09T02:03:19.103Z,7.50
2022-11-09T02:05:48.750Z,7.53
2022-11-09T02:08:19.782Z,7.59
2022-11-09T02:10:56.583Z,7.66
2022-11-09T02:13:27.853Z,7.69
2022-11-09T02:15:57.282Z,7.73
2022-11-09T02:18:25.310Z,7.75
2022-11-09T02:20:56.368Z,7.80
2022-11-09T02:23:25.480Z,7.86
2022-11-09T02:25:58.055Z,7.89
2022-11-09T02:28:28.204Z,7.91
2022-11-09T02:30:58.073Z,7.98
2022-11-09T02:33:26.143Z,8.01
2022-11-09T02:35:55.368Z,7.87
2022-11-09T02:38:23.090Z,7.91
2022-11-09T02:40:53.895Z,7.89
2022-11-09T02:43:22.220Z,7.92
2022-11-09T02:45:50.196Z,7.81
2022-11-09T02:48:18.164Z,7.91
2022-11-09T02:50:45.825Z,7.99
2022-11-09T02:53:14.976Z,8.05
2022-11-09T02:55:42.714Z,7.96
2022-11-09T02:58:10.423Z,7.97
2022-11-09T03:00:38.355Z,7.90
2022-11-09T03:03:06.925Z,7.84
2022-11-09T03:05:34.749Z,7.93
2022-11-09T03:08:03.114Z,7.97
2022-11-09T03:10:32.265Z,7.97
2022-11-09T03:13:00.357Z,8.03
2022-11-09T03:15:28.277Z,7.99
2022-11-09T03:17:56.193Z,7.97
2022-11-09T03:20:23.945Z,7.95
2022-11-09T03:22:51.996Z,7.97
2022-11-09T03:25:19.739Z,8.01
2022-11-09T03:27:48.864Z,8.06
2022-11-09T03:30:18.975Z,8.12
2022-11-09T03:32:50.400Z,8.12
2022-11-09T03:35:18.581Z,8.18
2022-11-09T03:37:46.315Z,8.13
2022-11-09T03:40:14.162Z,8.18
2022-11-09T03:42:44.814Z,8.22
2022-11-09T03:45:15.180Z,8.18
2022-11-09T03:47:43.513Z,8.24
2022-11-09T03:50:12.708Z,8.28
2022-11-09T03:52:40.776Z,8.21
2022-11-09T03:55:09.130Z,8.33
2022-11-09T03:57:36.912Z,8.28
2022-11-09T04:00:05.943Z,8.28
2022-11-09T04:02:35.081Z,8.38
2022-11-09T04:05:02.859Z,8.41
2022-11-09T04:07:30.631Z,8.42
2022-11-09T04:09:58.624Z,8.42
2022-11-09T04:12:26.712Z,8.52
2022-11-09T04:14:54.515Z,8.47
2022-11-09T04:17:22.247Z,8.57
2022-11-09T04:19:51.295Z,8.72
2022-11-09T04:22:19.049Z,8.74
2022-11-09T04:24:46.761Z,8.73
2022-11-09T04:27:14.442Z,8.82
2022-11-09T04:29:42.414Z,8.87
2022-11-09T04:32:10.181Z,8.88
2022-11-09T04:34:37.952Z,8.89
2022-11-09T04:37:07.110Z,8.85
2022-11-09T04:39:35.156Z,8.90
2022-11-09T04:42:03.016Z,8.87
2022-11-09T04:44:31.277Z,8.83
2022-11-09T04:46:59.091Z,8.80
2022-11-09T04:49:26.903Z,8.77
2022-11-09T04:51:54.691Z,8.78
2022-11-09T04:54:23.988Z,8.75
2022-11-09T04:56:51.719Z,8.73
2022-11-09T04:59:19.485Z,8.76
2022-11-09T05:01:47.209Z,8.74
2022-11-09T05:04:14.993Z,8.71
2022-11-09T05:06:43.165Z,8.77
2022-11-09T05:09:10.903Z,8.75
2022-11-09T05:11:40.094Z,8.72
2022-11-09T05:14:07.850Z,8.64
2022-11-09T05:16:35.623Z,8.72
2022-11-09T05:19:03.875Z,8.75
2022-11-09T05:21:31.627Z,8.75
2022-11-09T05:24:02.416Z,8.72
2022-11-09T05:26:32.078Z,8.74
2022-11-09T05:29:02.671Z,8.74
2022-11-09T05:31:31.081Z,8.73
2022-11-09T05:33:59.438Z,8.57
2022-11-09T05:36:28.105Z,8.75
2022-11-09T05:38:56.300Z,8.75
2022-11-09T05:41:24.506Z,8.77
2022-11-09T05:43:52.488Z,8.81
2022-11-09T05:46:22.482Z,8.78
2022-11-09T05:48:50.235Z,8.80
2022-11-09T05:51:17.956Z,8.81
2022-11-09T05:53:47.043Z,8.78
2022-11-09T05:56:15.522Z,8.72
2022-11-09T05:58:43.920Z,8.69
2022-11-09T06:01:15.872Z,8.66
2022-11-09T06:03:45.048Z,8.67
2022-11-09T06:06:14.362Z,8.68
2022-11-09T06:08:44.789Z,8.67
2022-11-09T06:11:19.929Z,8.67
2022-11-09T06:13:50.858Z,8.72
2022-11-09T06:16:18.617Z,8.72
2022-11-09T06:18:47.785Z,8.92
2022-11-09T06:21:15.519Z,9.20
2022-11-09T06:23:43.293Z,9.52
2022-11-09T06:26:12.669Z,9.53
2022-11-09T06:28:41.662Z,9.70
2022-11-09T06:31:12.872Z,10.24
2022-11-09T06:33:40.694Z,10.48
2022-11-09T06:36:11.148Z,10.94
2022-11-09T06:38:39.040Z,10.92
2022-11-09T06:41:06.875Z,10.80
2022-11-09T06:43:34.655Z,11.04
2022-11-09T06:46:04.777Z,10.85
2022-11-09T06:48:32.555Z,10.86
2022-11-09T06:51:04.316Z,10.85
2022-11-09T06:53:34.984Z,10.88
2022-11-09T06:56:04.889Z,10.80
2022-11-09T06:58:33.531Z,10.79
2022-11-09T07:01:01.401Z,10.75
2022-11-09T07:03:29.120Z,10.78
2022-11-09T07:05:56.861Z,10.79
2022-11-09T07:08:24.693Z,10.91
2022-11-09T07:10:53.818Z,11.07
2022-11-09T07:13:21.867Z,11.08
2022-11-09T07:15:54.594Z,11.11
2022-11-09T07:18:22.455Z,11.07
2022-11-09T07:20:50.614Z,11.10
2022-11-09T07:23:18.975Z,11.05
2022-11-09T07:25:47.272Z,11.05
2022-11-09T07:28:16.793Z,10.99
2022-11-09T07:30:44.474Z,10.92
2022-11-09T07:33:16.007Z,10.87
2022-11-09T07:35:43.747Z,10.91
2022-11-09T07:38:11.765Z,10.94
2022-11-09T07:40:39.556Z,11.00
2022-11-09T07:43:07.973Z,10.98
2022-11-09T07:45:37.949Z,10.94
2022-11-09T07:48:08.161Z,10.99
2022-11-09T07:50:37.596Z,11.00
2022-11-09T07:53:07.117Z,10.99
2022-11-09T07:55:36.158Z,10.81
2022-11-09T07:58:06.234Z,10.87
2022-11-09T08:00:35.653Z,10.81
2022-11-09T08:03:05.342Z,10.89
2022-11-09T08:05:33.477Z,10.98
2022-11-09T08:08:03.137Z,11.00
2022-11-09T08:10:32.392Z,11.02
2022-11-09T08:13:02.420Z,10.88
2022-11-09T08:15:31.533Z,11.06
2022-11-09T08:18:01.140Z,10.86
2022-11-09T08:20:30.645Z,11.06
2022-11-09T08:23:03.751Z,11.15
2022-11-09T08:25:32.509Z,11.03
2022-11-09T08:28:00.362Z,11.29
2022-11-09T08:30:28.812Z,11.37
2022-11-09T08:32:56.665Z,11.49
2022-11-09T08:35:25.767Z,11.55
2022-11-09T08:37:55.648Z,11.70
2022-11-09T08:40:26.916Z,11.61
2022-11-09T08:42:54.683Z,11.52
2022-11-09T08:45:22.758Z,11.64
2022-11-09T08:47:57.770Z,11.68
2022-11-09T08:50:25.674Z,11.72
2022-11-09T08:52:55.045Z,11.76
2022-11-09T08:55:23.106Z,11.70
2022-11-09T08:57:50.930Z,11.61
2022-11-09T09:00:19.302Z,11.57
2022-11-09T09:02:47.018Z,11.44
2022-11-09T09:05:14.760Z,11.46
2022-11-09T09:07:42.486Z,11.57
2022-11-09T09:10:11.897Z,11.60
2022-11-09T09:12:39.705Z,11.61
2022-11-09T09:15:08.168Z,11.71
2022-11-09T09:17:36.492Z,11.73
2022-11-09T09:20:05.254Z,11.82
2022-11-09T09:22:33.461Z,11.95
2022-11-09T09:25:01.352Z,12.15
2022-11-09T09:27:30.556Z,12.27
2022-11-09T09:29:59.039Z,12.16
2022-11-09T09:32:27.006Z,12.09
2022-11-09T09:34:54.748Z,12.01
2022-11-09T09:37:22.825Z,11.92
2022-11-09T09:39:50.569Z,12.02
2022-11-09T09:42:21.731Z,12.03
2022-11-09T09:44:58.001Z,12.00
2022-11-09T09:47:35.174Z,11.86
2022-11-09T09:50:05.304Z,11.80
2022-11-09T09:52:39.808Z,11.86
2022-11-09T09:55:16.948Z,11.74
2022-11-09T09:57:51.577Z,11.78
2022-11-09T10:00:24.818Z,11.96
2022-11-09T10:02:53.611Z,12.09
2022-11-09T10:05:28.194Z,12.21
2022-11-09T10:08:10.192Z,12.33
2022-11-09T10:10:45.910Z,12.16
2022-11-09T10:13:30.053Z,12.23
2022-11-09T10:16:06.580Z,12.52
2022-11-09T10:18:48.991Z,12.53
2022-11-09T10:21:30.084Z,12.68
2022-11-09T10:24:09.688Z,12.77
2022-11-09T10:26:43.984Z,12.64
2022-11-09T10:29:22.488Z,12.80
2022-11-09T10:31:53.969Z,12.83
2022-11-09T10:34:26.398Z,12.84
2022-11-09T10:37:02.662Z,12.82
2022-11-09T10:39:40.761Z,12.64
2022-11-09T10:42:11.574Z,12.55
2022-11-09T10:44:39.406Z,12.46
2022-11-09T10:47:13.834Z,12.35
2022-11-09T10:49:42.181Z,12.43
2022-11-09T10:52:32.764Z,12.46
2022-11-09T10:55:24.852Z,12.38
2022-11-09T10:57:56.377Z,12.27
2022-11-09T11:00:24.441Z,12.47
2022-11-09T11:02:54.689Z,12.45
2022-11-09T11:05:29.235Z,12.53
2022-11-09T11:07:57.108Z,12.63
2022-11-09T11:10:25.579Z,12.62
2022-11-09T11:13:19.072Z,12.67
2022-11-09T11:15:47.493Z,12.52
2022-11-09T11:18:22.356Z,12.66
2022-11-09T11:21:04.938Z,12.75
2022-11-09T11:23:36.938Z,12.85
2022-11-09T11:26:21.730Z,12.69
2022-11-09T11:28:53.472Z,12.80
2022-11-09T11:31:22.705Z,12.81
2022-11-09T11:33:51.813Z,12.70
2022-11-09T11:36:27.772Z,12.72
2022-11-09T11:39:02.583Z,12.75
2022-11-09T11:41:48.923Z,12.60
2022-11-09T11:44:27.747Z,12.63
2022-11-09T11:47:03.139Z,12.54
2022-11-09T11:49:57.455Z,12.56
2022-11-09T11:52:33.598Z,12.62
2022-11-09T11:55:19.658Z,12.50
2022-11-09T11:57:59.374Z,12.50
2022-11-09T12:00:27.479Z,12.54
2022-11-09T12:03:22.446Z,12.55
2022-11-09T12:06:06.678Z,12.62
2022-11-09T12:08:46.180Z,12.78
2022-11-09T12:11:24.063Z,12.73
2022-11-09T12:14:03.195Z,12.78
2022-11-09T12:16:40.158Z,12.70
2022-11-09T12:19:35.255Z,12.50
2022-11-09T12:22:09.914Z,12.59
2022-11-09T12:24:44.794Z,12.54
2022-11-09T12:27:39.546Z,12.59
2022-11-09T12:30:13.976Z,12.55
2022-11-09T12:32:47.444Z,12.37
2022-11-09T12:35:24.729Z,12.38
2022-11-09T12:37:59.985Z,12.49
2022-11-09T12:40:31.055Z,12.53
2022-11-09T12:43:05.146Z,12.39
2022-11-09T12:45:35.659Z,12.41
2022-11-09T12:48:12.059Z,12.38
2022-11-09T12:50:40.228Z,12.38
2022-11-09T12:53:10.158Z,12.30
2022-11-09T12:55:45.994Z,12.47
2022-11-09T12:58:24.611Z,12.51
2022-11-09T13:00:55.772Z,12.48
2022-11-09T13:03:27.465Z,11.69
2022-11-09T13:06:17.682Z,12.29
2022-11-09T13:08:59.850Z,12.26
2022-11-09T13:11:36.895Z,12.13
2022-11-09T13:14:35.007Z,12.13
2022-11-09T13:17:23.376Z,12.18
2022-11-09T13:19:55.346Z,12.09
2022-11-09T13:23:02.652Z,11.98
2022-11-09T13:25:50.885Z,11.97
2022-11-09T13:28:57.384Z,11.99
2022-11-09T13:31:54.808Z,11.90
2022-11-09T13:34:43.798Z,11.87
2022-11-09T13:37:54.666Z,11.78
2022-11-09T13:40:44.915Z,11.72
2022-11-09T13:43:21.853Z,11.76
2022-11-09T13:45:52.753Z,11.78
2022-11-09T13:48:42.647Z,11.73
2022-11-09T13:51:13.942Z,11.63
2022-11-09T13:53:54.338Z,11.62
2022-11-09T13:56:29.329Z,11.49
2022-11-09T13:59:00.975Z,11.60
2022-11-09T14:01:34.207Z,11.51
2022-11-09T14:04:05.254Z,11.51
2022-11-09T14:06:34.361Z,11.51
2022-11-09T14:09:02.721Z,11.50
2022-11-09T14:12:02.937Z,11.30
2022-11-09T14:14:55.635Z,11.46
2022-11-09T14:17:30.717Z,11.48
2022-11-09T14:20:11.675Z,11.51
2022-11-09T14:22:41.790Z,11.32
2022-11-09T14:25:15.812Z,11.41
2022-11-09T14:27:57.490Z,11.27
2022-11-09T14:30:29.481Z,11.45
2022-11-09T14:32:58.737Z,11.42
2022-11-09T14:35:29.938Z,11.46
2022-11-09T14:37:59.851Z,11.43
2022-11-09T14:40:29.653Z,11.46
2022-11-09T14:43:02.628Z,11.34
2022-11-09T14:45:30.453Z,11.39
2022-11-09T14:48:00.235Z,11.42
2022-11-09T14:50:31.543Z,11.37
2022-11-09T14:53:00.595Z,11.35
2022-11-09T14:55:29.362Z,11.33
2022-11-09T14:57:59.365Z,11.33
2022-11-09T15:00:33.459Z,11.30
2022-11-09T15:03:02.135Z,11.26
2022-11-09T15:05:39.992Z,11.24
2022-11-09T15:08:19.373Z,11.21
2022-11-09T15:10:51.022Z,11.21
2022-11-09T15:13:29.183Z,11.22
2022-11-09T15:15:57.150Z,11.24
2022-11-09T15:18:33.743Z,11.21
2022-11-09T15:21:13.874Z,11.29
2022-11-09T15:23:43.281Z,11.34
2022-11-09T15:26:27.429Z,11.28
2022-11-09T15:28:56.554Z,11.24
2022-11-09T15:31:25.794Z,11.21
2022-11-09T15:33:57.697Z,11.10
2022-11-09T15:36:31.983Z,11.12
2022-11-09T15:39:09.141Z,11.11
2022-11-09T15:41:38.437Z,11.05
2022-11-09T15:44:07.969Z,10.90
2022-11-09T15:46:41.518Z,10.99
2022-11-09T15:49:18.278Z,11.02
2022-11-09T15:51:46.500Z,11.02
2022-11-09T15:54:15.299Z,10.98
2022-11-09T15:56:43.675Z,10.99
2022-11-09T15:59:19.094Z,10.89
2022-11-09T16:01:46.884Z,10.91
2022-11-09T16:04:14.702Z,10.92
2022-11-09T16:06:46.333Z,10.91
2022-11-09T16:09:14.417Z,10.89
2022-11-09T16:11:42.151Z,10.88
2022-11-09T16:14:09.910Z,10.88
2022-11-09T16:16:39.106Z,10.88
2022-11-09T16:19:06.853Z,10.82
2022-11-09T16:21:34.593Z,10.88
2022-11-09T16:24:02.329Z,10.81
2022-11-09T16:26:30.165Z,10.90
2022-11-09T16:28:57.917Z,10.88
2022-11-09T16:31:48.286Z,10.91
2022-11-09T16:34:16.101Z,10.92
2022-11-09T16:36:48.954Z,10.95
2022-11-09T16:39:21.029Z,10.97
2022-11-09T16:41:51.180Z,10.97
2022-11-09T16:44:23.622Z,10.93
2022-11-09T16:46:52.048Z,11.01
2022-11-09T16:49:21.248Z,10.95
2022-11-09T16:51:49.086Z,11.04
2022-11-09T16:54:16.833Z,11.06
2022-11-09T16:56:44.979Z,11.09
2022-11-09T16:59:12.876Z,11.05
2022-11-09T17:01:40.961Z,11.08
2022-11-09T17:04:08.915Z,11.03
2022-11-09T17:06:38.090Z,11.03
2022-11-09T17:09:05.889Z,11.05
2022-11-09T17:11:33.691Z,10.97
2022-11-09T17:14:02.101Z,11.06
2022-11-09T17:16:29.894Z,11.01
2022-11-09T17:18:58.547Z,11.00
2022-11-09T17:21:28.401Z,10.83
2022-11-09T17:23:58.231Z,10.98
2022-11-09T17:26:26.937Z,10.98
2022-11-09T17:28:54.685Z,11.02
2022-11-09T17:31:26.578Z,10.99
2022-11-09T17:33:58.442Z,10.87
2022-11-09T17:36:56.792Z,11.10
2022-11-09T17:39:17.909Z,11.06
2022-11-09T17:41:45.665Z,11.03
2022-11-09T17:44:13.407Z,11.08
2022-11-09T17:46:41.227Z,11.11
2022-11-09T17:49:10.391Z,11.09
2022-11-09T17:51:38.459Z,11.22
2022-11-09T17:54:06.598Z,11.25
2022-11-09T17:56:35.948Z,11.11
2022-11-09T17:59:06.216Z,11.11
2022-11-09T18:01:40.818Z,11.05
2022-11-09T18:04:10.707Z,11.01
2022-11-09T18:06:39.246Z,11.01
2022-11-09T18:11:57.157Z,11.08
2022-11-09T18:14:24.917Z,11.07
2022-11-09T18:16:52.663Z,11.08
2022-11-09T18:19:20.517Z,11.04
2022-11-09T18:21:48.304Z,10.93
2022-11-09T18:24:16.204Z,10.96
2022-11-09T18:26:43.979Z,10.95
2022-11-09T18:29:13.095Z,10.94
2022-11-09T18:31:40.931Z,10.93
2022-11-09T18:34:08.835Z,10.97
2022-11-09T18:36:36.567Z,10.92
2022-11-09T18:39:04.726Z,11.00
2022-11-09T18:41:33.015Z,11.00
2022-11-09T18:44:00.843Z,11.06
2022-11-09T18:46:33.093Z,10.93
2022-11-09T18:49:00.949Z,11.01
2022-11-09T18:51:28.702Z,11.06
2022-11-09T18:53:56.558Z,11.00
2022-11-09T18:56:25.879Z,11.04
2022-11-09T18:58:55.194Z,11.11
2022-11-09T19:01:24.443Z,11.16
2022-11-09T19:03:58.976Z,11.15
2022-11-09T19:06:28.189Z,11.08
2022-11-09T19:09:13.648Z,11.11
2022-11-09T19:11:41.750Z,11.16
2022-11-09T19:14:10.337Z,11.12
2022-11-09T19:16:38.158Z,11.13
2022-11-09T19:19:07.278Z,11.04
2022-11-09T19:21:41.397Z,11.11
2022-11-09T19:24:12.167Z,10.86
2022-11-09T19:26:40.277Z,11.05
2022-11-09T19:29:08.973Z,11.14
2022-11-09T19:31:37.118Z,11.07
2022-11-09T19:34:05.064Z,11.04
2022-11-09T19:36:34.699Z,11.08
2022-11-09T19:39:02.902Z,11.05
2022-11-09T19:41:30.656Z,11.13
2022-11-09T19:43:59.601Z,11.12
2022-11-09T19:46:30.369Z,11.19
2022-11-09T19:48:58.841Z,11.11
2022-11-09T19:51:26.834Z,10.97
2022-11-09T19:54:03.013Z,11.04
2022-11-09T19:56:32.889Z,11.08
2022-11-09T19:59:04.638Z,11.04
2022-11-09T20:01:32.712Z,11.07
2022-11-09T20:04:09.909Z,11.07
2022-11-09T20:06:41.232Z,11.05
2022-11-09T20:09:12.163Z,11.02
2022-11-09T20:12:00.041Z,11.01
2022-11-09T20:14:27.813Z,10.91
2022-11-09T20:17:00.575Z,10.80
2022-11-09T20:19:32.822Z,10.76
2022-11-09T20:22:00.619Z,10.76
2022-11-09T20:24:29.806Z,10.74
2022-11-09T20:26:57.634Z,10.67
2022-11-09T20:29:25.379Z,10.62
2022-11-09T20:31:53.151Z,10.59
2022-11-09T20:34:20.916Z,10.57
2022-11-09T20:36:48.815Z,10.60
2022-11-09T20:39:19.406Z,10.60
2022-11-09T20:41:50.358Z,10.53
2022-11-09T20:44:20.661Z,10.47
2022-11-09T20:46:49.605Z,10.52
2022-11-09T20:49:17.400Z,10.45
2022-11-09T20:51:45.230Z,10.47
2022-11-09T20:54:12.988Z,10.53
2022-11-09T20:56:40.816Z,10.52
2022-11-09T20:59:10.186Z,10.52
2022-11-09T21:01:38.313Z,10.46
2022-11-09T21:04:06.310Z,10.57
2022-11-09T21:06:34.294Z,10.51
2022-11-09T21:09:04.604Z,10.73
2022-11-09T21:11:59.323Z,10.69
2022-11-09T21:14:28.499Z,10.58
2022-11-09T21:16:56.316Z,10.41
2022-11-09T21:19:24.112Z,10.55
2022-11-09T21:21:51.844Z,10.50
2022-11-09T21:24:37.175Z,10.50
2022-11-09T21:27:22.563Z,10.46
2022-11-09T21:29:51.796Z,10.39
2022-11-09T21:32:20.575Z,10.44
2022-11-09T21:34:48.694Z,10.43
2022-11-09T21:37:18.284Z,10.40
2022-11-09T21:39:46.118Z,10.44
2022-11-09T21:42:13.974Z,10.48
2022-11-09T21:44:41.889Z,10.51
2022-11-09T21:47:11.028Z,10.57
2022-11-09T21:49:38.830Z,10.62
2022-11-09T21:52:06.803Z,10.63
2022-11-09T21:54:34.600Z,10.65
2022-11-09T21:57:02.817Z,10.65
2022-11-09T21:59:30.617Z,10.63
2022-11-09T22:01:58.375Z,10.63
2022-11-09T22:04:27.527Z,10.61
2022-11-09T22:06:55.330Z,10.62
2022-11-09T22:09:23.109Z,10.63
2022-11-09T22:12:08.045Z,10.63
2022-11-09T22:14:53.450Z,10.64
2022-11-09T22:17:21.172Z,10.66
2022-11-09T22:20:07.864Z,10.70
2022-11-09T22:22:36.330Z,10.73
2022-11-09T22:25:04.469Z,10.74
2022-11-09T22:27:33.184Z,10.85
2022-11-09T22:30:01.234Z,10.83
2022-11-09T22:32:29.187Z,10.83
2022-11-09T22:34:58.271Z,10.88
2022-11-09T22:37:26.112Z,10.86
2022-11-09T22:39:53.935Z,10.85
2022-11-09T22:42:21.668Z,10.84
2022-11-09T22:44:49.387Z,10.89
2022-11-09T22:47:17.095Z,10.83
2022-11-09T22:49:45.186Z,10.86
2022-11-09T22:52:14.286Z,10.82
2022-11-09T22:54:42.040Z,10.84
2022-11-09T22:57:09.789Z,10.77
2022-11-09T22:59:37.499Z,10.78
2022-11-09T23:02:05.228Z,10.80
2022-11-09T23:04:32.970Z,10.77
2022-11-09T23:07:00.775Z,10.77
2022-11-09T23:09:29.848Z,10.82
2022-11-09T23:11:57.571Z,10.76
2022-11-09T23:14:39.180Z,10.76
2022-11-09T23:17:27.369Z,10.80
2022-11-09T23:19:54.222Z,10.75
2022-11-09T23:22:21.909Z,10.73
2022-11-09T23:25:08.174Z,10.78
2022-11-09T23:27:35.921Z,10.79
2022-11-09T23:30:04.581Z,10.82
2022-11-09T23:32:32.347Z,10.83
2022-11-09T23:35:00.078Z,10.88
2022-11-09T23:37:28.054Z,10.93
2022-11-09T23:39:57.218Z,10.95
2022-11-09T23:42:25.021Z,10.95
2022-11-09T23:44:52.708Z,10.94
2022-11-09T23:47:20.465Z,10.87
2022-11-09T23:49:48.267Z,10.86
2022-11-09T23:52:16.017Z,10.90
2022-11-09T23:54:45.549Z,10.84
2022-11-09T23:57:14.889Z,10.79
2022-11-09T23:59:42.593Z,10.84
